મેટ્રિક્સ
 
 
બજારના આંકડાઓ - ઈન્ટ્રાડે બ્લોક ડીલ
  તમે અહિં છો  :  બજાર   બજારના અન્ય આકડાઓ  ઈન્ટ્રાડે બ્લોક ડીલ
ઈન્ટ્રાડે બ્લોક ડીલ
બીએસઈ અને એનએસઈના બધા સ્ટોકની યાદી છે જેમાં બ્લોક ડીલ દિવસ દરમિયાન (લાઈવ ભાવ-ડીલેઈડ ફીડ) અને જયારે સોદો થયો છે તેની વિગતો તમે દરેક જેમ કે ઊંચી કિંમત માટે સરવાળો, દર અને આ સોદો કરવામાં આવ્યો હતો તેમ જ સમયના ઉંચા મૂલ્યના વ્યવહાર જોઈ શકો છો
આના પર બધી બ્લોક ડીલ :
અન્ય કંપનીની બ્લોક ડીલ શોધો
કંપનીનું નામ
બધી બ્લોક ડીલ જુઓ બીએસઈ અને એનએસઈ. જુઓ કે કોણે શેર વેચ્યા અને ખરીદ્યા
બીએસઈ/એનએસઈ 20 ફેબ્રુઆરી 2018
બ્લોક ડીલ્સ
કંપનીનું નામ એક્સચેન્જ ક્ષેત્ર ક્વાંટિટી ભાવ મૂલ્ય(રૂ.કરોડમાં) સમય
રેલિગેર એન્ટરપ્રાઇઝીસ એનએસઈ ફાઈનાન્સ- રોકાણ 524547 63.30 3.32 09:15
ઇલેક્ટ્રોસ્ટીલ સ્ટીલસ એનએસઈ Steel - Medium & Small 3000000 2.85 0.86 09:16
ઇલેક્ટ્રોસ્ટીલ સ્ટીલસ બીએસઈ Steel - Medium & Small 546198 2.95 0.16 09:18
ફોર્ટીસ હેલ્થ કેર એનએસઈ હોસ્પિટલ અને મેડિકલ સર્વિસીઝ 524842 146.35 7.68 09:22
ઇન્ફો એજ ઇન્ડિયા બીએસઈ પરચૂરણ 50000 1,207.50 6.04 09:26
ઇન્ફો એજ ઇન્ડિયા બીએસઈ પરચૂરણ 55000 1,208.65 6.65 09:28
ગેટવે ડીસ્ત્રીપાર્ક્સ બીએસઈ પરચૂરણ 500281 199.50 9.98 09:30
ગેટવે ડીસ્ત્રીપાર્ક્સ એનએસઈ પરચૂરણ 493000 199.00 9.81 09:31
ફિનોલેક્ષ ઇન્ડસ્ટ્રી એનએસઈ પેટ્રોકેમિકલ્સ 384028 635.00 24.39 09:32
લિંક્વીડ બીઝ એનએસઈ ફાઈનાન્સ- રોકાણ 50000 1,000.00 5.00 09:33
ડેલ્ટા કોર્પ એનએસઈ ફાઈનાન્સ-જનરલ 424501 358.90 15.24 09:37
સ્ટેટ બેંક ઓફ ઇન્ડીયા બીએસઈ બેન્ક-જાહેર ક્ષેત્ર 500010 269.20 13.46 09:42
આલોક ઇન્ડસટ્રીસ એનએસઈ ટેક્સટાઈલ્સ-વિવિંગ 682919 3.05 0.21 09:43
એસકેએફ ઇન્ડીયા એનએસઈ બેરિંગ્સ 49000 1,845.00 9.04 09:50
એયુ નાના ફાયનાન્સ બેંક બીએસઈ ફાઈનાન્સ-જનરલ 500072 575.00 28.75 09:51
અરબિંદો ફાર્મા એનએસઈ ફાર્માસ્યુટીક્લ્સ 209875 575.05 12.07 10:02
નેસ્લે ઇન્ડીયા એનએસઈ ફૂડ પ્રોસેસિંગ 10000 7,587.00 7.59 10:05
હોન્ડા સિએલ પાવર પ્રોડક્ટ્સ બીએસઈ વિદ્યુત ઉપકરણ 50000 1,450.00 7.25 10:14
જિંદલ સ્ટેીલ એન્ડ પાવર એનએસઈ સ્ટીલ-સ્પોન્જ આયર્ન 204923 252.20 5.17 10:17
વક્રાંગી એનએસઈ Computers - Software Medium & Small 392169 221.20 8.67 10:18
ઇન્ફોસિસ એનએસઈ કોમ્પ્યુટર-સોફ્ટવેર 76256 1,139.50 8.69 10:25
સ્ટેટ બેંક ઓફ ઇન્ડીયા એનએસઈ બેન્ક-જાહેર ક્ષેત્ર 503787 266.80 13.44 10:26
આઈટીસી એનએસઈ સિગારેટ 526659 263.25 13.86 10:27
ઇલેક્ટ્રોસ્ટીલ સ્ટીલસ એનએસઈ Steel - Medium & Small 500000 3.15 0.16 10:28
એનટીપીસી એનએસઈ Power - Generation & Distribution 827448 163.50 13.53 10:29
ઇલેક્ટ્રોસ્ટીલ સ્ટીલસ એનએસઈ Steel - Medium & Small 600000 3.15 0.19 10:34
ઇન્ફોસિસ એનએસઈ કોમ્પ્યુટર-સોફ્ટવેર 75473 1,144.35 8.64 10:44
સ્ટેટ બેંક ઓફ ઇન્ડીયા એનએસઈ બેન્ક-જાહેર ક્ષેત્ર 503211 266.70 13.42 10:46
રીલાયન્સ કમ્યુનિકેશન્સ એનએસઈ દૂરસંચાર-સેવા 740195 27.85 2.06 10:49
ઇન્દ્રપ્રસ્થ ગેસ એનએસઈ ઓઈલ ડ્રિલીંગ અને એક્સપ્લોરેશન 250745 295.10 7.40 10:54
હિંદૂસ્તાન ઝીંક એનએસઈ મેટલ્સ-નોન ફેરસ 753230 313.00 23.58 11:07
કન્ટેઈનર કોર્પોરેશન ઓફ ઇંડિયા એનએસઈ Transport & Logistics 50088 1,292.65 6.47 11:08
રિલાયંસ ઇન્ડસ્ટ્રીઝ એનએસઈ રિફાઈનરીઝ 75807 921.75 6.99 11:09
સ્ટેટ બેંક ઓફ ઇન્ડીયા એનએસઈ બેન્ક-જાહેર ક્ષેત્ર 510275 267.00 13.62 11:13
મહિન્દ્રા એન્ડ મહિન્દ્રા બીએસઈ ઓટો-કાર અને જીપ 180259 719.00 12.96 11:21
સ્ટેટ બેંક ઓફ ઇન્ડીયા એનએસઈ બેન્ક-જાહેર ક્ષેત્ર 367807 267.10 9.82 11:32
ઉતમ વેલ્યુ સ્ટીલ્સ બીએસઈ Steel - CR & HR Strips 1062751 0.23 0.02 11:40
લિંક્વીડ બીઝ એનએસઈ ફાઈનાન્સ- રોકાણ 50000 1,000.00 5.00 11:41
કોવઇ મેડીકલ સેન્ટર એન્ડ હોસ્પિટલ બીએસઈ હોસ્પિટલ અને મેડિકલ સર્વિસીઝ 39400 1,360.00 5.36 11:47
સ્ટેટ બેંક ઓફ ઇન્ડીયા એનએસઈ બેન્ક-જાહેર ક્ષેત્ર 251095 270.30 6.79 11:52
ઝુઆરી એગ્રો કેમિકલ્સ બીએસઈ ફર્ટિલાઈઝર 98686 524.25 5.17 12:00
બીકેએમ ઉદ્યોગો બીએસઈ પરચૂરણ 664721 39.25 2.61 12:01
યસ બેંક એનએસઈ બેન્ક-ખાનગી ક્ષેત્ર 296391 312.90 9.27 12:06
ભારત ઇલેકટ્રોનિકસ એનએસઈ ઈલેકટ્રોનિક્સ 405018 152.25 6.17 12:09
બજાજ ફીન્સેર્વ બીએસઈ ફાઈનાન્સ- રોકાણ 33371 5,023.00 16.76 12:22
હેલ્થકેર ગ્લોબલ એન્ટરપ્રાઈઝિસ લિમિટ બીએસઈ હોસ્પિટલ અને મેડિકલ સર્વિસીઝ 187284 323.00 6.05 12:23
એનએસઈ ઈલેકટ્રોનિક્સ 300219 233.75 7.02 12:26
કોલ ઇંડિયા એનએસઈ Mining & Minerals 300157 309.85 9.30 12:31
ક્યુએસ્સ કોર્પ એનએસઈ એન્જિનિયરિંગ 70022 984.95 6.90 12:35
સિપલા બીએસઈ ફાર્માસ્યુટીક્લ્સ 300000 597.75 17.93 12:36
એડેલવાઇસ ફાઇનાન્શીયલ સર્વિસીસ એનએસઈ ફાઈનાન્સ-જનરલ 505158 252.55 12.76 12:44
પંજાબ નૈશનલ બેંક એનએસઈ બેન્ક-જાહેર ક્ષેત્ર 534849 116.05 6.21 12:45
ફેડરલ બેંક બીએસઈ બેન્ક-ખાનગી ક્ષેત્ર 5159050 91.55 47.23 12:46
શ્રીરામ સિટી યુનિયન ફાઇનાન્સ બીએસઈ ફાઈનાન્સ-લિઝીંગ તથા હાયર પરચેઝ 29974 1,969.25 5.90 12:47
ફોર્ટીસ હેલ્થ કેર એનએસઈ હોસ્પિટલ અને મેડિકલ સર્વિસીઝ 612983 149.25 9.15 12:48
આઈટીસી બીએસઈ સિગારેટ 310750 265.90 8.26 12:50
અપોલો હોસ્પિટલ્સ એન્ટરપ્રાઇઝીસ એનએસઈ હોસ્પિટલ અને મેડિકલ સર્વિસીઝ 65026 1,214.50 7.90 12:54
ડો. રેડ્ડીસ લેબોરેટરીસ એનએસઈ ફાર્માસ્યુટીક્લ્સ 50166 2,161.50 10.84 12:57
મૅક્સ ફાઇનાન્ષિ& બીએસઈ પેકેજીંગ 133393 500.50 6.68 13:04
મહિન્દ્રા એન્ડ મહિન્દ્રા બીએસઈ ઓટો-કાર અને જીપ 849639 705.00 59.90 13:07
એસઆરએફ બીએસઈ ટેક્સટાઈલ્સ-મેનમેડ 32500 1,915.00 6.22 13:14
ડો. રેડ્ડીસ લેબોરેટરીસ એનએસઈ ફાર્માસ્યુટીક્લ્સ 23808 2,162.00 5.15 13:23
સ્ટેટ બેંક ઓફ ઇન્ડીયા બીએસઈ બેન્ક-જાહેર ક્ષેત્ર 331408 270.90 8.98 13:24
આઈસીઆઈસીઆઈ બેંક બીએસઈ બેન્ક-ખાનગી ક્ષેત્ર 464010 319.50 14.83 13:29
આઈસીઆઈસીઆઈ બેંક બીએસઈ બેન્ક-ખાનગી ક્ષેત્ર 1170911 320.40 37.52 13:30
મધરસન સુમી સિસ્ટમ્સ બીએસઈ ઓટો-એન્સીલરી 1282731 323.05 41.44 13:31
સેન્ચ્યુરી ટેક્સટાઇલ્સ એન્ડ ઇન્ડસ્ટ એનએસઈ ડાઈવર્સીફાઈડ 142591 1,199.40 17.10 13:34
ટાઇટન કંપની એનએસઈ પરચૂરણ 60436 828.35 5.01 13:39
યુનાઇટેડ સ્પિરિટ્સ એનએસઈ બ્રુવરીઝ અને ડિસ્ટીલરી 50576 3,257.55 16.48 13:43
યુનાઇટેડ સ્પિરિટ્સ એનએસઈ બ્રુવરીઝ અને ડિસ્ટીલરી 50000 3,255.00 16.28 13:45
ઇન્ફોસિસ એનએસઈ કોમ્પ્યુટર-સોફ્ટવેર 100532 1,147.20 11.53 13:54
ટાઇટન કંપની એનએસઈ પરચૂરણ 80427 829.50 6.67 13:55
ફોર્ટીસ હેલ્થ કેર એનએસઈ હોસ્પિટલ અને મેડિકલ સર્વિસીઝ 423091 153.35 6.49 13:57
એનએસઈ Infrastructure - General 91356 1,294.00 11.82 13:58
ભારતી એયરટેલ એનએસઈ દૂરસંચાર-સેવા 229741 419.50 9.64 14:05
કોલ ઇંડિયા એનએસઈ Mining & Minerals 219603 309.75 6.80 14:06
કોલ ઇંડિયા એનએસઈ Mining & Minerals 256868 309.50 7.95 14:07
ગારવેયર વાલ રોપ્સ એનએસઈ ટેક્સટાઈલ્સ-જનરલ 69600 941.00 6.55 14:10
બોમ્બે ડાઇંગ એન્ડ મેન્યુફેક્ચરીંગ કં બીએસઈ ડાઈવર્સીફાઈડ 718487 282.70 20.31 14:12
શ્રીરામ સિટી યુનિયન ફાઇનાન્સ બીએસઈ ફાઈનાન્સ-લિઝીંગ તથા હાયર પરચેઝ 40085 1,975.35 7.92 14:13
વક્રાંગી બીએસઈ Computers - Software Medium & Small 890959 221.55 19.74 14:14
કોલ ઇંડિયા એનએસઈ Mining & Minerals 200291 309.45 6.20 14:15
બીકેએમ ઉદ્યોગો બીએસઈ પરચૂરણ 667752 37.85 2.53 14:16
હેલ્થકેર ગ્લોબલ એન્ટરપ્રાઈઝિસ લિમિટ બીએસઈ હોસ્પિટલ અને મેડિકલ સર્વિસીઝ 187335 321.55 6.02 14:20
કોવઇ મેડીકલ સેન્ટર એન્ડ હોસ્પિટલ બીએસઈ હોસ્પિટલ અને મેડિકલ સર્વિસીઝ 51246 1,359.90 6.97 14:21
મંગલમ સીમેંટ બીએસઈ સિમેન્ટ-અગ્રણી 800000 336.50 26.92 14:22
સેન્ચ્યુરી એંકા બીએસઈ ટેક્સટાઈલ્સ-મેનમેડ 415680 349.50 14.53 14:24
મંગલમ ટિમ્બર પ્રોડક્ટસ બીએસઈ પરચૂરણ 653462 31.50 2.06 14:25
એનટીપીસી બીએસઈ Power - Generation & Distribution 2000000 163.10 32.62 14:27
અબન ઓફશોર એનએસઈ ઓઈલ ડ્રિલીંગ અને એક્સપ્લોરેશન 616553 171.90 10.60 14:30
પાશવઁનાથ ડેવલપસ એનએસઈ કન્સટ્રક્શન એન્ડ કોન્ટ્રેકટીંગ-રીયલ એસ્ટેટ 587846 23.05 1.35 14:31
લ્યુપિન એનએસઈ ફાર્માસ્યુટીક્લ્સ 83728 819.00 6.86 14:37
પેજ ઈન્ડસટ્રીસ એનએસઈ ટેક્સટાઈલ્સ-રેડીમેડ એપરલ્સ 5002 22,700.00 11.35 14:41
લિંક્વીડ બીઝ એનએસઈ ફાઈનાન્સ- રોકાણ 559279 999.99 55.93 14:45
એનટીપીસી બીએસઈ Power - Generation & Distribution 1483488 164.20 24.36 14:49
સુઝલોન એનર્જી એનએસઈ Power - Generation & Distribution 843129 13.10 1.10 14:54
ફોર્ટીસ હેલ્થ કેર એનએસઈ હોસ્પિટલ અને મેડિકલ સર્વિસીઝ 340290 149.60 5.09 14:55
ચોલામંડલમ ઇનવેસ્ટમેન્ટ એન્ડ ફાઇનાન્ બીએસઈ ફાઈનાન્સ-લિઝીંગ તથા હાયર પરચેઝ 70000 1,333.95 9.34 14:56
આઈસીઆઈસીઆઈ બેંક એનએસઈ બેન્ક-ખાનગી ક્ષેત્ર 1109846 317.20 35.20 14:57
આઈસીઆઈસીઆઈ બેંક બીએસઈ બેન્ક-ખાનગી ક્ષેત્ર 436440 318.00 13.88 14:59
સુઝલોન એનર્જી એનએસઈ Power - Generation & Distribution 701800 13.10 0.92 15:04
વિપ્રો એનએસઈ કોમ્પ્યુટર-સોફ્ટવેર 333046 291.50 9.71 15:09
મારુતિ સુઝુકી ઇંડિયા એનએસઈ ઓટો-કાર અને જીપ 6057 8,725.00 5.28 15:13
ઈમામી એનએસઈ પર્સનલ કેર 100000 1,045.00 10.45 15:25
ભારતી એયરટેલ એનએસઈ દૂરસંચાર-સેવા 501992 418.50 21.01 15:26
કન્ટેઈનર કોર્પોરેશન ઓફ ઇંડિયા એનએસઈ Transport & Logistics 50139 1,291.90 6.48 15:28
બીએસઈ Steel - Medium & Small 1350500 17.90 2.42 15:30


ન્યૂઝ ફ્લૅશ

  • સન ફાર્મા અમેરિકામાં Imatinib Mesylate લોન્ચ
  • કારોબાર : શૅર્સ સંબધિત પ્રશ્નો પૂછવા માટે BH (SPACE) STOCK સાથે તમારું નામ અને ફોન નંબર લખીને મેસેજ કરો 51818 પર
  • કારોબાર : BH (SPACE) આપના સ્ટોકની વિગત, સાથે જ આપનું નામ લખી 51818 પર મેસેજ કરો અને અમારા ટોલ ફ્રી નંબર 1800-4190-709 પર કાૅલ કરો અને જવાબ મેળવો અમારા ખાસ શાૅ બજાર હેલ્પલાઇનમાં સોમવારથી શુક્રવાર સવારે 11.30 કલાકે
  • કારોબાર : પર્સનલ ફાઇનાન્સને લગતા તમારા કોઈ પ્રશ્ન હોય તો તમે અમને money@network18online.com પર મોકલી શકો છો. તમારા સવાલના જવાબ મની મૅનેજરમાં આપવામાં આવશે
  • કારોબાર : ચીનના આર્થિક આંકડાઓ જાન્યુઆરી Caixin ફાઈનલ મેન્યુફેક્ચરીંગ PMI 48.2 થી વધી 48.4 (MoM)
  • કારોબાર : US FDAની મંજૂરી મળી ઓરોબિન્દો ફાર્માને ડાયાબિટિશની દવા Saxagliptin માટે મંજૂરી મળી
  • કારોબાર : US FDAની મંજૂરી મળી ડો.રેડ્ડીઝને બેક્ટેરિયલ ઈન્ફેક્શનની દવા ડોક્સીસાયક્લીન માટે મંજૂરી મળી
  • કારોબાર : US FDAની મંજૂરી મળી માઈગ્રેનની દવા Sumatriptan માટે ડો.રેડ્ડીઝને મંજૂરી મળી
  • કારોબાર : જાપાનના આર્થિક આંકડાઓ જાન્યુઆરીમાં મેન્યુફેક્ચરીંગ PMI 52.6 થી ઘટી 52.3 (MoM)
  • કારોબાર : વકરાંગીએ ટાટા AIG જનરલ ઈન્શ્યોરન્સ કંપની સાથે કરાર કર્યા

Now Playing

સુપરફાસ્ટ બજારસમાચાર